createdAt,value
2023-05-16T00:00:54.437Z,100.00
2023-05-16T00:03:21.500Z,100.00
2023-05-16T00:05:48.716Z,100.00
2023-05-16T00:08:15.864Z,100.00
2023-05-16T00:10:44.038Z,100.00
2023-05-16T00:13:11.096Z,100.00
2023-05-16T00:15:38.841Z,100.00
2023-05-16T00:18:05.954Z,100.00
2023-05-16T00:20:32.943Z,100.00
2023-05-16T00:23:02.753Z,100.00
2023-05-16T00:25:29.800Z,100.00
2023-05-16T00:27:57.056Z,100.00
2023-05-16T00:30:24.261Z,100.00
2023-05-16T00:32:52.156Z,100.00
2023-05-16T00:35:19.210Z,100.00
2023-05-16T00:37:46.567Z,100.00
2023-05-16T00:40:13.504Z,100.00
2023-05-16T00:42:40.379Z,100.00
2023-05-16T00:45:08.258Z,100.00
2023-05-16T00:47:36.297Z,100.00
2023-05-16T00:50:04.259Z,100.00
2023-05-16T00:52:33.182Z,100.00
2023-05-16T00:55:00.521Z,100.00
2023-05-16T00:57:27.478Z,100.00
2023-05-16T00:59:54.325Z,100.00
2023-05-16T01:02:21.737Z,100.00
2023-05-16T01:04:49.103Z,100.00
2023-05-16T01:07:17.170Z,100.00
2023-05-16T01:09:44.218Z,100.00
2023-05-16T01:12:32.820Z,100.00
2023-05-16T01:15:23.087Z,100.00
2023-05-16T01:17:55.262Z,100.00
2023-05-16T01:20:48.479Z,100.00
2023-05-16T01:23:33.966Z,100.00
2023-05-16T01:26:28.286Z,100.00
2023-05-16T01:28:55.878Z,100.00
2023-05-16T01:31:22.977Z,100.00
2023-05-16T01:33:51.541Z,100.00
2023-05-16T01:36:39.990Z,100.00
2023-05-16T01:39:25.463Z,100.00
2023-05-16T01:41:56.285Z,100.00
2023-05-16T01:44:30.275Z,100.00
2023-05-16T01:46:59.384Z,100.00
2023-05-16T01:50:08.650Z,100.00
2023-05-16T01:52:50.777Z,100.00
2023-05-16T01:55:24.272Z,100.00
2023-05-16T01:57:51.383Z,100.00
2023-05-16T02:00:18.949Z,100.00
2023-05-16T02:02:46.017Z,100.00
2023-05-16T02:05:13.136Z,100.00
2023-05-16T02:07:40.085Z,100.00
2023-05-16T02:10:08.153Z,100.00
2023-05-16T02:12:35.506Z,100.00
2023-05-16T02:15:02.673Z,100.00
2023-05-16T02:17:29.656Z,100.00
2023-05-16T02:19:57.769Z,100.00
2023-05-16T02:22:24.714Z,100.00
2023-05-16T02:24:51.661Z,100.00
2023-05-16T02:27:19.115Z,100.00
2023-05-16T02:29:46.164Z,100.00
2023-05-16T02:32:13.109Z,100.00
2023-05-16T02:34:40.052Z,100.00
2023-05-16T02:37:08.427Z,100.00
2023-05-16T02:39:35.484Z,100.00
2023-05-16T02:42:02.752Z,100.00
2023-05-16T02:44:29.774Z,100.00
2023-05-16T02:46:59.382Z,100.00
2023-05-16T02:49:26.631Z,100.00
2023-05-16T02:51:54.507Z,100.00
2023-05-16T02:54:21.853Z,100.00
2023-05-16T02:56:49.959Z,100.00
2023-05-16T02:59:19.743Z,100.00
2023-05-16T03:01:46.855Z,100.00
2023-05-16T03:04:14.097Z,100.00
2023-05-16T03:06:42.102Z,100.00
2023-05-16T03:09:09.048Z,100.00
2023-05-16T03:11:37.068Z,100.00
2023-05-16T03:14:04.176Z,100.00
2023-05-16T03:16:31.334Z,100.00
2023-05-16T03:18:58.714Z,100.00
2023-05-16T03:21:27.505Z,100.00
2023-05-16T03:23:55.247Z,100.00
2023-05-16T03:26:22.864Z,100.00
2023-05-16T03:28:51.366Z,100.00
2023-05-16T03:31:18.699Z,100.00
2023-05-16T03:33:45.867Z,100.00
2023-05-16T03:36:12.801Z,100.00
2023-05-16T03:38:39.797Z,100.00
2023-05-16T03:41:06.800Z,100.00
2023-05-16T03:43:33.847Z,100.00
2023-05-16T03:46:04.457Z,100.00
2023-05-16T03:48:31.640Z,100.00
2023-05-16T03:50:58.682Z,100.00
2023-05-16T03:53:25.719Z,100.00
2023-05-16T03:55:52.581Z,100.00
2023-05-16T03:58:19.507Z,100.00
2023-05-16T04:00:47.002Z,100.00
2023-05-16T04:03:14.119Z,100.00
2023-05-16T04:05:41.392Z,100.00
2023-05-16T04:08:08.411Z,100.00
2023-05-16T04:10:36.070Z,100.00
2023-05-16T04:13:03.009Z,100.00
2023-05-16T04:15:30.071Z,100.00
2023-05-16T04:17:57.191Z,100.00
2023-05-16T04:20:24.257Z,100.00
2023-05-16T04:22:52.122Z,100.00
2023-05-16T04:25:19.165Z,100.00
2023-05-16T04:27:46.115Z,100.00
2023-05-16T04:30:14.743Z,100.00
2023-05-16T04:32:41.761Z,100.00
2023-05-16T04:35:09.528Z,100.00
2023-05-16T04:37:37.064Z,100.00
2023-05-16T04:40:04.625Z,100.00
2023-05-16T04:42:32.193Z,100.00
2023-05-16T04:44:59.149Z,98.59
2023-05-16T04:47:26.137Z,87.08
2023-05-16T04:49:53.321Z,81.21
2023-05-16T04:52:20.577Z,73.84
2023-05-16T04:54:47.522Z,68.98
2023-05-16T04:57:15.104Z,67.00
2023-05-16T04:59:42.022Z,66.19
2023-05-16T05:02:10.172Z,64.74
2023-05-16T05:04:38.398Z,63.57
2023-05-16T05:07:05.422Z,61.08
2023-05-16T05:09:32.285Z,59.74
2023-05-16T05:11:59.311Z,57.87
2023-05-16T05:14:26.456Z,56.22
2023-05-16T05:16:53.406Z,55.38
2023-05-16T05:19:21.098Z,54.44
2023-05-16T05:21:48.517Z,54.08
2023-05-16T05:24:15.473Z,53.77
2023-05-16T05:26:42.710Z,53.45
2023-05-16T05:29:09.960Z,52.63
2023-05-16T05:31:37.158Z,52.36
2023-05-16T05:34:04.282Z,51.47
2023-05-16T05:36:31.818Z,51.59
2023-05-16T05:38:58.713Z,51.36
2023-05-16T05:41:26.933Z,51.17
2023-05-16T05:43:54.182Z,50.79
2023-05-16T05:46:21.371Z,50.74
2023-05-16T05:48:48.444Z,49.96
2023-05-16T05:51:15.732Z,51.00
2023-05-16T05:53:42.928Z,50.92
2023-05-16T05:56:09.941Z,50.55
2023-05-16T05:58:36.878Z,49.97
2023-05-16T06:01:04.133Z,50.04
2023-05-16T06:03:31.204Z,49.73
2023-05-16T06:05:58.674Z,49.99
2023-05-16T06:08:25.783Z,49.17
2023-05-16T06:10:52.935Z,48.82
2023-05-16T06:13:19.875Z,50.53
2023-05-16T06:15:53.779Z,49.94
2023-05-16T06:18:21.366Z,49.20
2023-05-16T06:20:48.280Z,48.66
2023-05-16T06:23:15.229Z,47.98
2023-05-16T06:25:42.114Z,47.20
2023-05-16T06:28:09.010Z,46.87
2023-05-16T06:30:36.060Z,45.99
2023-05-16T06:33:03.096Z,46.66
2023-05-16T06:35:30.258Z,45.43
2023-05-16T06:37:57.404Z,44.35
2023-05-16T06:40:24.962Z,43.02
2023-05-16T06:42:51.901Z,42.76
2023-05-16T06:45:19.374Z,41.90
2023-05-16T06:47:46.595Z,41.84
2023-05-16T06:50:13.978Z,41.32
2023-05-16T06:52:42.187Z,41.53
2023-05-16T06:55:09.912Z,41.10
2023-05-16T06:57:36.852Z,41.89
2023-05-16T07:00:04.819Z,41.76
2023-05-16T07:04:48.169Z,42.00
2023-05-16T07:07:15.717Z,42.21
2023-05-16T07:09:43.132Z,41.18
2023-05-16T07:12:10.305Z,40.38
2023-05-16T07:14:37.816Z,39.97
2023-05-16T07:17:04.760Z,40.52
2023-05-16T07:19:32.653Z,40.06
2023-05-16T07:21:59.944Z,40.12
2023-05-16T07:24:27.086Z,40.16
2023-05-16T07:26:55.213Z,39.98
2023-05-16T07:29:22.736Z,40.25
2023-05-16T07:31:49.848Z,39.39
2023-05-16T07:34:17.427Z,39.67
2023-05-16T07:36:44.704Z,39.85
2023-05-16T07:39:11.930Z,39.31
2023-05-16T07:41:38.977Z,38.84
2023-05-16T07:44:05.917Z,38.60
2023-05-16T07:46:33.408Z,37.09
2023-05-16T07:49:00.832Z,37.12
2023-05-16T07:51:28.261Z,36.28
2023-05-16T07:53:55.233Z,36.38
2023-05-16T07:56:23.302Z,36.02
2023-05-16T07:58:50.347Z,36.42
2023-05-16T08:14:08.263Z,32.56
2023-05-16T08:16:35.655Z,33.41
2023-05-16T08:19:03.040Z,32.95
2023-05-16T08:21:31.957Z,33.32
2023-05-16T08:23:59.113Z,32.65
2023-05-16T08:26:26.779Z,31.96
2023-05-16T08:28:53.715Z,33.52
2023-05-16T08:31:21.430Z,34.15
2023-05-16T08:33:48.623Z,33.21
2023-05-16T08:36:16.408Z,33.41
2023-05-16T08:38:43.364Z,33.42
2023-05-16T08:41:10.963Z,33.38
2023-05-16T08:43:38.245Z,33.37
2023-05-16T08:46:07.989Z,33.10
2023-05-16T08:48:35.118Z,33.80
2023-05-16T08:51:02.977Z,34.41
2023-05-16T08:53:33.752Z,34.35
2023-05-16T08:56:00.971Z,33.63
2023-05-16T08:58:29.847Z,34.22
2023-05-16T09:00:56.781Z,33.08
2023-05-16T09:03:25.817Z,33.32
2023-05-16T09:05:53.040Z,33.81
2023-05-16T09:08:20.395Z,33.48
2023-05-16T09:10:47.553Z,33.41
2023-05-16T09:13:15.330Z,32.87
2023-05-16T09:15:42.456Z,32.77
2023-05-16T09:18:12.868Z,32.78
2023-05-16T09:20:49.889Z,32.12
2023-05-16T09:23:17.132Z,32.90
2023-05-16T09:25:44.363Z,32.76
2023-05-16T09:28:11.769Z,32.28
2023-05-16T09:30:39.785Z,31.97
2023-05-16T09:33:07.276Z,32.34
2023-05-16T09:35:45.001Z,32.49
2023-05-16T09:38:17.234Z,31.76
2023-05-16T09:40:45.444Z,31.55
2023-05-16T09:43:16.780Z,31.95
2023-05-16T09:45:48.517Z,31.26
2023-05-16T09:48:16.173Z,31.21
2023-05-16T09:50:52.780Z,31.84
2023-05-16T09:53:30.722Z,32.76
2023-05-16T09:56:05.422Z,32.96
2023-05-16T09:58:33.374Z,32.73
2023-05-16T10:01:00.871Z,32.66
2023-05-16T10:03:28.646Z,31.68
2023-05-16T10:05:56.194Z,32.21
2023-05-16T10:08:26.731Z,32.17
2023-05-16T10:10:57.550Z,32.38
2023-05-16T10:13:29.218Z,32.76
2023-05-16T10:15:57.653Z,32.47
2023-05-16T10:18:31.823Z,32.38
2023-05-16T10:21:08.940Z,31.75
2023-05-16T10:23:38.596Z,31.86
2023-05-16T10:26:06.459Z,32.60
2023-05-16T10:28:33.440Z,33.27
2023-05-16T10:31:00.758Z,32.13
2023-05-16T10:33:27.827Z,32.25
2023-05-16T10:35:55.869Z,32.79
2023-05-16T10:38:24.594Z,33.05
2023-05-16T10:40:51.711Z,32.72
2023-05-16T10:43:26.840Z,32.33
2023-05-16T10:45:58.293Z,33.11
2023-05-16T10:48:43.593Z,33.41
2023-05-16T10:51:22.892Z,33.51
2023-05-16T10:53:54.259Z,34.08
2023-05-16T10:56:26.557Z,34.49
2023-05-16T10:58:54.258Z,34.10
2023-05-16T11:01:29.675Z,34.23
2023-05-16T11:04:00.579Z,34.19
2023-05-16T11:06:31.491Z,33.97
2023-05-16T11:09:20.148Z,34.59
2023-05-16T11:11:49.382Z,35.60
2023-05-16T11:14:29.529Z,35.57
2023-05-16T11:17:09.341Z,35.62
2023-05-16T11:19:40.850Z,36.48
2023-05-16T11:22:14.016Z,36.62
2023-05-16T11:24:46.458Z,37.60
2023-05-16T11:27:13.673Z,37.17
2023-05-16T11:29:41.287Z,37.41
2023-05-16T11:32:08.441Z,37.84
2023-05-16T11:34:37.923Z,38.33
2023-05-16T11:37:05.698Z,39.50
2023-05-16T11:39:32.889Z,40.14
2023-05-16T11:42:00.392Z,38.99
2023-05-16T11:44:27.444Z,39.71
2023-05-16T11:46:54.985Z,39.36
2023-05-16T11:49:21.942Z,39.56
2023-05-16T11:51:49.946Z,39.91
2023-05-16T11:54:17.168Z,40.14
2023-05-16T11:56:44.218Z,39.01
2023-05-16T11:59:11.674Z,39.41
2023-05-16T12:01:39.863Z,39.47
2023-05-16T12:04:12.592Z,39.76
2023-05-16T12:06:40.179Z,39.81
2023-05-16T12:09:15.010Z,39.77
2023-05-16T12:11:44.423Z,40.24
2023-05-16T12:14:13.040Z,38.94
2023-05-16T12:16:44.685Z,39.09
2023-05-16T12:19:12.263Z,38.85
2023-05-16T12:21:39.982Z,39.27
2023-05-16T12:24:10.394Z,39.89
2023-05-16T12:26:39.834Z,40.08
2023-05-16T12:29:07.188Z,40.13
2023-05-16T12:31:38.745Z,39.85
2023-05-16T12:34:06.059Z,39.90
2023-05-16T12:36:35.215Z,41.19
2023-05-16T12:39:04.148Z,41.98
2023-05-16T12:41:31.713Z,41.86
2023-05-16T12:44:17.366Z,41.73
2023-05-16T12:46:46.149Z,41.98
2023-05-16T12:49:13.940Z,42.47
2023-05-16T12:51:41.423Z,42.65
2023-05-16T12:54:10.654Z,43.95
2023-05-16T12:56:41.255Z,43.26
2023-05-16T12:59:08.691Z,42.88
2023-05-16T13:01:36.574Z,41.53
2023-05-16T13:04:05.223Z,42.81
2023-05-16T13:06:44.924Z,43.18
2023-05-16T13:09:19.804Z,43.99
2023-05-16T13:11:46.951Z,47.19
2023-05-16T13:14:14.131Z,48.91
2023-05-16T13:16:41.363Z,49.71
2023-05-16T13:19:08.856Z,49.92
2023-05-16T13:21:36.279Z,47.96
2023-05-16T13:24:03.619Z,49.43
2023-05-16T13:26:30.530Z,48.46
2023-05-16T13:28:57.565Z,49.83
2023-05-16T13:31:24.831Z,49.50
2023-05-16T13:33:52.394Z,49.73
2023-05-16T13:36:19.384Z,48.88
2023-05-16T13:38:46.508Z,48.16
2023-05-16T13:41:14.379Z,47.48
2023-05-16T13:43:41.529Z,46.07
2023-05-16T13:46:08.636Z,45.49
2023-05-16T13:48:35.925Z,45.57
2023-05-16T13:51:02.971Z,45.73
2023-05-16T13:53:30.018Z,45.98
2023-05-16T13:55:57.164Z,45.50
2023-05-16T13:58:24.141Z,45.75
2023-05-16T14:00:51.552Z,46.02
2023-05-16T14:03:19.158Z,45.50
2023-05-16T14:05:46.486Z,45.84
2023-05-16T14:08:14.648Z,46.53
2023-05-16T14:10:41.702Z,47.08
2023-05-16T14:13:08.739Z,49.00
2023-05-16T14:15:35.997Z,50.10
2023-05-16T14:18:05.115Z,49.30
2023-05-16T14:20:32.235Z,49.01
2023-05-16T14:22:59.600Z,48.39
2023-05-16T14:25:26.926Z,48.85
2023-05-16T14:27:54.405Z,49.32
2023-05-16T14:30:21.863Z,49.93
2023-05-16T14:32:48.942Z,50.04
2023-05-16T14:35:16.675Z,50.03
2023-05-16T14:37:43.716Z,50.60
2023-05-16T14:40:11.378Z,51.12
2023-05-16T14:42:38.660Z,52.07
2023-05-16T14:45:06.904Z,53.68
2023-05-16T14:47:34.052Z,55.09
2023-05-16T14:50:01.530Z,56.72
2023-05-16T14:52:28.690Z,56.68
2023-05-16T14:54:55.805Z,58.06
2023-05-16T14:57:23.397Z,57.81
2023-05-16T14:59:51.236Z,57.92
2023-05-16T15:02:19.406Z,58.56
2023-05-16T15:04:46.398Z,59.15
2023-05-16T15:07:14.012Z,59.95
2023-05-16T15:09:41.262Z,63.07
2023-05-16T15:12:09.437Z,74.74
2023-05-16T15:14:36.887Z,98.62
2023-05-16T15:17:06.678Z,100.00
2023-05-16T15:19:35.959Z,100.00
2023-05-16T15:22:07.969Z,100.00
2023-05-16T15:24:35.287Z,100.00
2023-05-16T15:27:05.085Z,100.00
2023-05-16T15:29:32.791Z,100.00
2023-05-16T15:32:00.068Z,100.00
2023-05-16T15:34:28.828Z,99.55
2023-05-16T15:36:56.078Z,100.00
2023-05-16T15:39:26.095Z,100.00
2023-05-16T15:42:09.093Z,100.00
2023-05-16T15:44:38.578Z,100.00
2023-05-16T15:47:06.377Z,100.00
2023-05-16T15:49:33.429Z,100.00
2023-05-16T15:52:01.609Z,100.00
2023-05-16T15:54:29.270Z,100.00
2023-05-16T15:56:56.668Z,100.00
2023-05-16T15:59:23.971Z,100.00
2023-05-16T16:01:51.075Z,100.00
2023-05-16T16:04:20.429Z,100.00
2023-05-16T16:06:48.796Z,100.00
2023-05-16T16:09:16.274Z,100.00
2023-05-16T16:11:43.508Z,100.00
2023-05-16T16:14:11.309Z,100.00
2023-05-16T16:16:40.798Z,100.00
2023-05-16T16:19:08.574Z,100.00
2023-05-16T16:21:36.114Z,100.00
2023-05-16T16:24:03.756Z,100.00
2023-05-16T16:26:32.014Z,100.00
2023-05-16T16:29:00.005Z,100.00
2023-05-16T16:31:27.155Z,100.00
2023-05-16T16:33:54.840Z,100.00
2023-05-16T16:36:21.994Z,100.00
2023-05-16T16:38:49.216Z,100.00
2023-05-16T16:41:16.867Z,100.00
2023-05-16T16:43:43.919Z,100.00
2023-05-16T16:46:11.198Z,100.00
2023-05-16T16:48:38.518Z,100.00
2023-05-16T16:51:05.571Z,100.00
2023-05-16T16:53:32.750Z,100.00
2023-05-16T16:56:00.289Z,100.00
2023-05-16T16:58:27.448Z,100.00
2023-05-16T17:00:54.627Z,100.00
2023-05-16T17:03:21.996Z,100.00
2023-05-16T17:05:49.114Z,100.00
2023-05-16T17:08:16.229Z,100.00
2023-05-16T17:10:43.278Z,100.00
2023-05-16T17:13:12.332Z,100.00
2023-05-16T17:15:39.517Z,100.00
2023-05-16T17:18:09.463Z,100.00
2023-05-16T17:20:36.683Z,100.00
2023-05-16T17:23:03.837Z,100.00
2023-05-16T17:25:31.210Z,100.00
2023-05-16T17:27:58.448Z,100.00
2023-05-16T17:30:26.500Z,100.00
2023-05-16T17:32:54.313Z,100.00
2023-05-16T17:35:21.517Z,100.00
2023-05-16T17:37:50.010Z,100.00
2023-05-16T17:40:18.136Z,100.00
2023-05-16T17:42:45.497Z,100.00
2023-05-16T17:45:19.538Z,100.00
2023-05-16T17:47:46.608Z,100.00
2023-05-16T17:50:13.771Z,100.00
2023-05-16T17:52:41.081Z,100.00
2023-05-16T17:55:09.432Z,100.00
2023-05-16T17:57:36.516Z,100.00
2023-05-16T18:00:05.737Z,100.00
2023-05-16T18:02:32.931Z,100.00
2023-05-16T18:05:00.116Z,100.00
2023-05-16T18:07:27.494Z,100.00
2023-05-16T18:09:54.698Z,100.00
2023-05-16T18:12:21.979Z,100.00
2023-05-16T18:14:49.212Z,100.00
2023-05-16T18:17:16.671Z,100.00
2023-05-16T18:19:43.851Z,100.00
2023-05-16T18:22:12.563Z,100.00
2023-05-16T18:24:40.182Z,100.00
2023-05-16T18:27:07.314Z,100.00
2023-05-16T18:29:34.497Z,100.00
2023-05-16T18:32:04.987Z,100.00
2023-05-16T18:34:32.241Z,100.00
2023-05-16T18:36:59.325Z,100.00
2023-05-16T18:39:26.436Z,100.00
2023-05-16T18:41:53.586Z,100.00
2023-05-16T18:44:20.840Z,100.00
2023-05-16T18:46:47.989Z,100.00
2023-05-16T18:49:15.139Z,100.00
2023-05-16T18:51:42.289Z,100.00
2023-05-16T18:54:10.553Z,100.00
2023-05-16T18:56:37.630Z,100.00
2023-05-16T18:59:04.695Z,100.00
2023-05-16T19:01:31.809Z,100.00
2023-05-16T19:03:59.321Z,100.00
2023-05-16T19:06:27.026Z,100.00
2023-05-16T19:08:54.070Z,100.00
2023-05-16T19:11:22.545Z,100.00
2023-05-16T19:13:49.695Z,100.00
2023-05-16T19:16:16.845Z,100.00
2023-05-16T19:18:43.949Z,100.00
2023-05-16T19:22:38.085Z,100.00
2023-05-16T19:25:06.730Z,100.00
2023-05-16T19:27:33.807Z,100.00
2023-05-16T19:30:00.872Z,100.00
2023-05-16T19:32:28.782Z,100.00
2023-05-16T19:34:55.995Z,100.00
2023-05-16T19:37:24.049Z,100.00
2023-05-16T19:39:51.113Z,100.00
2023-05-16T19:42:18.348Z,100.00
2023-05-16T19:44:45.705Z,100.00
2023-05-16T19:47:13.057Z,100.00
2023-05-16T19:49:40.025Z,100.00
2023-05-16T19:52:13.496Z,100.00
2023-05-16T19:54:41.670Z,100.00
2023-05-16T19:57:09.429Z,100.00
2023-05-16T19:59:36.687Z,100.00
2023-05-16T20:02:04.635Z,100.00
2023-05-16T20:04:31.826Z,100.00
2023-05-16T20:06:58.882Z,100.00
2023-05-16T20:09:28.157Z,100.00
2023-05-16T20:11:57.567Z,100.00
2023-05-16T20:14:24.797Z,100.00
2023-05-16T20:16:53.078Z,100.00
2023-05-16T20:19:20.165Z,100.00
2023-05-16T20:21:47.460Z,100.00
2023-05-16T20:24:15.546Z,100.00
2023-05-16T20:26:42.589Z,100.00
2023-05-16T20:29:10.055Z,100.00
2023-05-16T20:31:37.225Z,100.00
2023-05-16T20:34:04.212Z,100.00
2023-05-16T20:36:31.439Z,100.00
2023-05-16T20:38:58.353Z,100.00
2023-05-16T20:41:26.406Z,100.00
2023-05-16T20:43:53.574Z,100.00
2023-05-16T20:46:20.915Z,100.00
2023-05-16T20:48:48.001Z,100.00
2023-05-16T20:51:15.206Z,100.00
2023-05-16T20:53:42.364Z,100.00
2023-05-16T20:56:09.404Z,100.00
2023-05-16T20:58:36.355Z,100.00
2023-05-16T21:01:04.010Z,100.00
2023-05-16T21:03:31.117Z,100.00
2023-05-16T21:05:58.223Z,100.00
2023-05-16T21:08:25.349Z,100.00
2023-05-16T21:10:52.398Z,100.00
2023-05-16T21:13:19.649Z,100.00
2023-05-16T21:15:46.800Z,100.00
2023-05-16T21:18:13.938Z,100.00
2023-05-16T21:20:41.101Z,100.00
2023-05-16T21:23:07.995Z,100.00
2023-05-16T21:25:36.168Z,100.00
2023-05-16T21:28:03.885Z,100.00
2023-05-16T21:30:30.926Z,100.00
2023-05-16T21:32:58.168Z,100.00
2023-05-16T21:35:25.482Z,100.00
2023-05-16T21:37:52.687Z,100.00
2023-05-16T21:40:25.112Z,100.00
2023-05-16T21:42:52.966Z,100.00
2023-05-16T21:45:20.176Z,100.00
2023-05-16T21:47:47.376Z,100.00
2023-05-16T21:50:14.572Z,100.00
2023-05-16T21:52:41.724Z,100.00
2023-05-16T21:55:09.280Z,100.00
2023-05-16T21:57:36.538Z,100.00
2023-05-16T22:00:06.957Z,100.00
2023-05-16T22:02:36.194Z,100.00
2023-05-16T22:05:03.845Z,100.00
2023-05-16T22:07:32.042Z,100.00
2023-05-16T22:09:59.351Z,100.00
2023-05-16T22:12:26.996Z,100.00
2023-05-16T22:14:54.252Z,100.00
2023-05-16T22:17:21.807Z,100.00
2023-05-16T22:19:49.571Z,100.00
2023-05-16T22:22:17.118Z,100.00
2023-05-16T22:24:44.185Z,100.00
2023-05-16T22:27:11.568Z,100.00
2023-05-16T22:29:38.679Z,100.00
2023-05-16T22:32:09.688Z,100.00
2023-05-16T22:34:39.960Z,100.00
2023-05-16T22:37:10.605Z,100.00
2023-05-16T22:39:37.821Z,100.00
2023-05-16T22:42:05.280Z,100.00
2023-05-16T22:44:32.427Z,100.00
2023-05-16T22:46:59.588Z,100.00
2023-05-16T22:49:26.627Z,100.00
2023-05-16T22:51:53.782Z,100.00
2023-05-16T22:54:21.228Z,100.00
2023-05-16T22:56:48.284Z,100.00
2023-05-16T22:59:15.446Z,100.00
2023-05-16T23:01:42.392Z,100.00
2023-05-16T23:04:09.693Z,100.00
2023-05-16T23:06:36.971Z,100.00
2023-05-16T23:09:04.959Z,100.00
2023-05-16T23:11:32.702Z,100.00
2023-05-16T23:13:59.758Z,100.00
2023-05-16T23:16:26.902Z,100.00
2023-05-16T23:18:53.991Z,100.00
2023-05-16T23:21:21.213Z,100.00
2023-05-16T23:23:48.250Z,100.00
2023-05-16T23:26:15.291Z,100.00
2023-05-16T23:28:43.668Z,100.00
2023-05-16T23:31:10.638Z,100.00
2023-05-16T23:33:37.789Z,100.00
2023-05-16T23:36:05.419Z,100.00
2023-05-16T23:38:32.471Z,100.00
2023-05-16T23:40:59.619Z,100.00
2023-05-16T23:43:26.682Z,100.00
2023-05-16T23:45:53.638Z,100.00
2023-05-16T23:48:20.607Z,100.00
2023-05-16T23:50:47.706Z,100.00
2023-05-16T23:53:15.160Z,100.00
2023-05-16T23:55:42.088Z,100.00
2023-05-16T23:58:09.252Z,100.00
